sensor_id;sensor_type;location;lat;lon;timestamp;P1;durP1;ratioP1;P2;durP2;ratioP2
12758;SDS011;20944;47.048;15.390;2022-10-23T00:01:13;2.00;;;1.20;;
12758;SDS011;20944;47.048;15.390;2022-10-23T00:04:04;1.17;;;0.80;;
12758;SDS011;20944;47.048;15.390;2022-10-23T00:06:54;0.80;;;0.80;;
12758;SDS011;20944;47.048;15.390;2022-10-23T00:09:44;1.43;;;0.93;;
12758;SDS011;20944;47.048;15.390;2022-10-23T00:12:33;1.53;;;0.70;;
12758;SDS011;20944;47.048;15.390;2022-10-23T00:15:21;1.60;;;0.93;;
12758;SDS011;20944;47.048;15.390;2022-10-23T00:18:13;1.37;;;1.00;;
12758;SDS011;20944;47.048;15.390;2022-10-23T00:21:01;0.93;;;0.80;;
12758;SDS011;20944;47.048;15.390;2022-10-23T00:23:50;1.27;;;1.00;;
12758;SDS011;20944;47.048;15.390;2022-10-23T00:26:41;0.93;;;0.77;;
12758;SDS011;20944;47.048;15.390;2022-10-23T00:29:29;1.43;;;0.60;;
12758;SDS011;20944;47.048;15.390;2022-10-23T00:32:18;0.87;;;0.60;;
12758;SDS011;20944;47.048;15.390;2022-10-23T00:35:07;1.23;;;0.80;;
12758;SDS011;20944;47.048;15.390;2022-10-23T00:37:56;0.70;;;0.50;;
12758;SDS011;20944;47.048;15.390;2022-10-23T00:40:45;0.80;;;0.53;;
12758;SDS011;20944;47.048;15.390;2022-10-23T00:43:52;0.80;;;0.80;;
12758;SDS011;20944;47.048;15.390;2022-10-23T00:46:43;0.90;;;0.90;;
12758;SDS011;20944;47.048;15.390;2022-10-23T00:49:32;0.60;;;0.60;;
12758;SDS011;20944;47.048;15.390;2022-10-23T00:52:21;1.13;;;0.67;;
12758;SDS011;20944;47.048;15.390;2022-10-23T00:55:10;0.60;;;0.50;;
12758;SDS011;20944;47.048;15.390;2022-10-23T00:57:59;0.57;;;0.57;;
12758;SDS011;20944;47.048;15.390;2022-10-23T01:00:50;0.90;;;0.33;;
12758;SDS011;20944;47.048;15.390;2022-10-23T01:03:40;0.63;;;0.40;;
12758;SDS011;20944;47.048;15.390;2022-10-23T01:06:30;1.03;;;0.87;;
12758;SDS011;20944;47.048;15.390;2022-10-23T01:09:25;1.23;;;0.70;;
12758;SDS011;20944;47.048;15.390;2022-10-23T01:12:19;0.70;;;0.40;;
12758;SDS011;20944;47.048;15.390;2022-10-23T01:15:14;0.40;;;0.20;;
12758;SDS011;20944;47.048;15.390;2022-10-23T01:18:09;0.53;;;0.53;;
12758;SDS011;20944;47.048;15.390;2022-10-23T01:21:03;0.67;;;0.50;;
12758;SDS011;20944;47.048;15.390;2022-10-23T01:27:19;0.90;;;0.70;;
12758;SDS011;20944;47.048;15.390;2022-10-23T01:30:10;0.87;;;0.50;;
12758;SDS011;20944;47.048;15.390;2022-10-23T01:33:03;1.40;;;0.60;;
12758;SDS011;20944;47.048;15.390;2022-10-23T01:35:58;0.77;;;0.67;;
12758;SDS011;20944;47.048;15.390;2022-10-23T01:38:51;0.57;;;0.40;;
12758;SDS011;20944;47.048;15.390;2022-10-23T01:41:44;0.43;;;0.40;;
12758;SDS011;20944;47.048;15.390;2022-10-23T01:44:37;0.30;;;0.30;;
12758;SDS011;20944;47.048;15.390;2022-10-23T01:47:30;0.60;;;0.40;;
12758;SDS011;20944;47.048;15.390;2022-10-23T01:50:22;0.27;;;0.27;;
12758;SDS011;20944;47.048;15.390;2022-10-23T01:53:13;0.40;;;0.20;;
12758;SDS011;20944;47.048;15.390;2022-10-23T01:56:02;0.50;;;0.20;;
12758;SDS011;20944;47.048;15.390;2022-10-23T01:58:56;0.80;;;0.30;;
12758;SDS011;20944;47.048;15.390;2022-10-23T02:01:50;0.50;;;0.30;;
12758;SDS011;20944;47.048;15.390;2022-10-23T02:04:44;0.43;;;0.40;;
12758;SDS011;20944;47.048;15.390;2022-10-23T02:07:36;0.30;;;0.30;;
12758;SDS011;20944;47.048;15.390;2022-10-23T02:10:28;0.53;;;0.30;;
12758;SDS011;20944;47.048;15.390;2022-10-23T02:13:22;0.73;;;0.40;;
12758;SDS011;20944;47.048;15.390;2022-10-23T02:16:19;0.57;;;0.20;;
12758;SDS011;20944;47.048;15.390;2022-10-23T02:19:16;0.30;;;0.30;;
12758;SDS011;20944;47.048;15.390;2022-10-23T02:22:13;0.57;;;0.23;;
12758;SDS011;20944;47.048;15.390;2022-10-23T02:25:06;1.07;;;0.23;;
12758;SDS011;20944;47.048;15.390;2022-10-23T02:27:59;0.27;;;0.20;;
12758;SDS011;20944;47.048;15.390;2022-10-23T02:30:52;0.87;;;0.33;;
12758;SDS011;20944;47.048;15.390;2022-10-23T02:33:45;0.30;;;0.30;;
12758;SDS011;20944;47.048;15.390;2022-10-23T02:36:36;0.10;;;0.10;;
12758;SDS011;20944;47.048;15.390;2022-10-23T02:39:25;0.53;;;0.50;;
12758;SDS011;20944;47.048;15.390;2022-10-23T02:42:16;0.40;;;0.40;;
12758;SDS011;20944;47.048;15.390;2022-10-23T02:45:10;0.40;;;0.40;;
12758;SDS011;20944;47.048;15.390;2022-10-23T02:48:05;0.97;;;0.40;;
12758;SDS011;20944;47.048;15.390;2022-10-23T02:51:01;0.30;;;0.30;;
12758;SDS011;20944;47.048;15.390;2022-10-23T02:53:55;0.20;;;0.20;;
12758;SDS011;20944;47.048;15.390;2022-10-23T02:56:52;0.30;;;0.30;;
12758;SDS011;20944;47.048;15.390;2022-10-23T02:59:51;0.20;;;0.20;;
12758;SDS011;20944;47.048;15.390;2022-10-23T03:02:48;0.40;;;0.33;;
12758;SDS011;20944;47.048;15.390;2022-10-23T03:05:42;0.27;;;0.27;;
12758;SDS011;20944;47.048;15.390;2022-10-23T03:08:40;0.30;;;0.10;;
12758;SDS011;20944;47.048;15.390;2022-10-23T03:11:31;1.17;;;0.70;;
12758;SDS011;20944;47.048;15.390;2022-10-23T03:14:20;1.27;;;0.50;;
12758;SDS011;20944;47.048;15.390;2022-10-23T03:17:08;0.20;;;0.13;;
12758;SDS011;20944;47.048;15.390;2022-10-23T03:19:57;0.23;;;0.23;;
12758;SDS011;20944;47.048;15.390;2022-10-23T03:22:46;0.20;;;0.13;;
12758;SDS011;20944;47.048;15.390;2022-10-23T03:25:35;0.50;;;0.30;;
12758;SDS011;20944;47.048;15.390;2022-10-23T03:28:25;0.40;;;0.20;;
12758;SDS011;20944;47.048;15.390;2022-10-23T03:31:13;0.40;;;0.30;;
12758;SDS011;20944;47.048;15.390;2022-10-23T03:34:02;0.20;;;0.20;;
12758;SDS011;20944;47.048;15.390;2022-10-23T03:36:55;0.30;;;0.23;;
12758;SDS011;20944;47.048;15.390;2022-10-23T03:39:44;0.53;;;0.20;;
12758;SDS011;20944;47.048;15.390;2022-10-23T03:42:32;0.90;;;0.40;;
12758;SDS011;20944;47.048;15.390;2022-10-23T03:45:23;0.23;;;0.10;;
12758;SDS011;20944;47.048;15.390;2022-10-23T03:48:11;0.10;;;0.10;;
12758;SDS011;20944;47.048;15.390;2022-10-23T03:51:00;0.37;;;0.20;;
12758;SDS011;20944;47.048;15.390;2022-10-23T03:53:49;0.33;;;0.20;;
12758;SDS011;20944;47.048;15.390;2022-10-23T03:56:37;0.10;;;0.10;;
12758;SDS011;20944;47.048;15.390;2022-10-23T03:59:26;0.53;;;0.27;;
12758;SDS011;20944;47.048;15.390;2022-10-23T04:02:16;0.40;;;0.37;;
12758;SDS011;20944;47.048;15.390;2022-10-23T04:05:06;0.20;;;0.10;;
12758;SDS011;20944;47.048;15.390;2022-10-23T04:07:55;0.30;;;0.30;;
12758;SDS011;20944;47.048;15.390;2022-10-23T04:10:44;0.23;;;0.20;;
12758;SDS011;20944;47.048;15.390;2022-10-23T04:13:33;0.60;;;0.60;;
12758;SDS011;20944;47.048;15.390;2022-10-23T04:16:21;0.20;;;0.20;;
12758;SDS011;20944;47.048;15.390;2022-10-23T04:19:12;0.40;;;0.40;;
12758;SDS011;20944;47.048;15.390;2022-10-23T04:22:02;0.30;;;0.30;;
12758;SDS011;20944;47.048;15.390;2022-10-23T04:24:51;0.40;;;0.20;;
12758;SDS011;20944;47.048;15.390;2022-10-23T04:27:40;0.20;;;0.20;;
12758;SDS011;20944;47.048;15.390;2022-10-23T04:30:29;0.20;;;0.20;;
12758;SDS011;20944;47.048;15.390;2022-10-23T04:33:17;0.20;;;0.10;;
12758;SDS011;20944;47.048;15.390;2022-10-23T04:36:08;0.43;;;0.40;;
12758;SDS011;20944;47.048;15.390;2022-10-23T04:38:57;0.43;;;0.20;;
12758;SDS011;20944;47.048;15.390;2022-10-23T04:41:45;0.47;;;0.20;;
12758;SDS011;20944;47.048;15.390;2022-10-23T04:44:34;0.57;;;0.40;;
12758;SDS011;20944;47.048;15.390;2022-10-23T04:47:23;0.20;;;0.20;;
12758;SDS011;20944;47.048;15.390;2022-10-23T04:50:12;0.10;;;0.10;;
12758;SDS011;20944;47.048;15.390;2022-10-23T04:53:03;0.20;;;0.10;;
12758;SDS011;20944;47.048;15.390;2022-10-23T04:55:52;0.30;;;0.20;;
12758;SDS011;20944;47.048;15.390;2022-10-23T04:58:42;0.70;;;0.33;;
12758;SDS011;20944;47.048;15.390;2022-10-23T05:01:31;0.20;;;0.10;;
12758;SDS011;20944;47.048;15.390;2022-10-23T05:04:20;0.43;;;0.30;;
12758;SDS011;20944;47.048;15.390;2022-10-23T05:07:08;0.10;;;0.10;;
12758;SDS011;20944;47.048;15.390;2022-10-23T05:09:59;0.30;;;0.20;;
12758;SDS011;20944;47.048;15.390;2022-10-23T05:12:47;0.20;;;0.20;;
12758;SDS011;20944;47.048;15.390;2022-10-23T05:15:36;0.20;;;0.10;;
12758;SDS011;20944;47.048;15.390;2022-10-23T05:18:25;0.37;;;0.20;;
12758;SDS011;20944;47.048;15.390;2022-10-23T05:21:18;0.20;;;0.20;;
12758;SDS011;20944;47.048;15.390;2022-10-23T05:24:11;0.20;;;0.20;;
12758;SDS011;20944;47.048;15.390;2022-10-23T05:27:01;0.20;;;0.20;;
12758;SDS011;20944;47.048;15.390;2022-10-23T05:29:50;0.20;;;0.20;;
12758;SDS011;20944;47.048;15.390;2022-10-23T05:32:39;0.27;;;0.20;;
12758;SDS011;20944;47.048;15.390;2022-10-23T05:35:28;0.17;;;0.17;;
12758;SDS011;20944;47.048;15.390;2022-10-23T05:38:18;0.13;;;0.13;;
12758;SDS011;20944;47.048;15.390;2022-10-23T05:41:07;0.17;;;0.10;;
12758;SDS011;20944;47.048;15.390;2022-10-23T05:43:57;0.20;;;0.20;;
12758;SDS011;20944;47.048;15.390;2022-10-23T05:46:46;0.40;;;0.13;;
12758;SDS011;20944;47.048;15.390;2022-10-23T05:49:34;0.20;;;0.20;;
12758;SDS011;20944;47.048;15.390;2022-10-23T05:52:23;1.10;;;0.60;;
12758;SDS011;20944;47.048;15.390;2022-10-23T05:55:12;0.20;;;0.20;;
12758;SDS011;20944;47.048;15.390;2022-10-23T05:58:01;0.40;;;0.20;;
12758;SDS011;20944;47.048;15.390;2022-10-23T06:00:51;0.10;;;0.10;;
12758;SDS011;20944;47.048;15.390;2022-10-23T06:03:40;0.33;;;0.27;;
12758;SDS011;20944;47.048;15.390;2022-10-23T06:06:28;0.43;;;0.20;;
12758;SDS011;20944;47.048;15.390;2022-10-23T06:09:17;0.80;;;0.63;;
12758;SDS011;20944;47.048;15.390;2022-10-23T06:12:06;0.10;;;0.10;;
12758;SDS011;20944;47.048;15.390;2022-10-23T06:14:55;0.17;;;0.17;;
12758;SDS011;20944;47.048;15.390;2022-10-23T06:17:45;0.10;;;0.10;;
12758;SDS011;20944;47.048;15.390;2022-10-23T06:20:34;0.10;;;0.10;;
12758;SDS011;20944;47.048;15.390;2022-10-23T06:23:24;0.10;;;0.10;;
12758;SDS011;20944;47.048;15.390;2022-10-23T06:26:13;0.17;;;0.17;;
12758;SDS011;20944;47.048;15.390;2022-10-23T06:29:04;0.20;;;0.10;;
12758;SDS011;20944;47.048;15.390;2022-10-23T06:31:52;0.40;;;0.30;;
12758;SDS011;20944;47.048;15.390;2022-10-23T06:34:42;0.30;;;0.23;;
12758;SDS011;20944;47.048;15.390;2022-10-23T06:37:32;0.30;;;0.30;;
12758;SDS011;20944;47.048;15.390;2022-10-23T06:40:20;0.87;;;0.40;;
12758;SDS011;20944;47.048;15.390;2022-10-23T06:43:09;0.97;;;0.37;;
12758;SDS011;20944;47.048;15.390;2022-10-23T06:45:59;0.33;;;0.33;;
12758;SDS011;20944;47.048;15.390;2022-10-23T06:48:48;0.40;;;0.40;;
12758;SDS011;20944;47.048;15.390;2022-10-23T06:51:38;0.40;;;0.30;;
12758;SDS011;20944;47.048;15.390;2022-10-23T06:54:27;0.40;;;0.23;;
12758;SDS011;20944;47.048;15.390;2022-10-23T06:57:16;0.50;;;0.50;;
12758;SDS011;20944;47.048;15.390;2022-10-23T07:00:05;0.43;;;0.40;;
12758;SDS011;20944;47.048;15.390;2022-10-23T07:02:55;1.27;;;0.40;;
12758;SDS011;20944;47.048;15.390;2022-10-23T07:05:43;0.50;;;0.23;;
12758;SDS011;20944;47.048;15.390;2022-10-23T07:08:34;0.50;;;0.50;;
12758;SDS011;20944;47.048;15.390;2022-10-23T07:11:23;0.73;;;0.50;;
12758;SDS011;20944;47.048;15.390;2022-10-23T07:14:13;0.37;;;0.37;;
12758;SDS011;20944;47.048;15.390;2022-10-23T07:17:02;0.70;;;0.40;;
12758;SDS011;20944;47.048;15.390;2022-10-23T07:19:50;0.30;;;0.30;;
12758;SDS011;20944;47.048;15.390;2022-10-23T07:22:39;0.67;;;0.33;;
12758;SDS011;20944;47.048;15.390;2022-10-23T07:25:29;0.30;;;0.30;;
12758;SDS011;20944;47.048;15.390;2022-10-23T07:28:19;0.87;;;0.40;;
12758;SDS011;20944;47.048;15.390;2022-10-23T07:31:09;0.77;;;0.30;;
12758;SDS011;20944;47.048;15.390;2022-10-23T07:33:58;0.33;;;0.33;;
12758;SDS011;20944;47.048;15.390;2022-10-23T07:36:47;0.70;;;0.20;;
12758;SDS011;20944;47.048;15.390;2022-10-23T07:39:36;0.37;;;0.30;;
12758;SDS011;20944;47.048;15.390;2022-10-23T07:42:26;0.90;;;0.50;;
12758;SDS011;20944;47.048;15.390;2022-10-23T07:45:15;0.80;;;0.37;;
12758;SDS011;20944;47.048;15.390;2022-10-23T07:48:04;0.63;;;0.30;;
12758;SDS011;20944;47.048;15.390;2022-10-23T07:50:52;0.50;;;0.40;;
12758;SDS011;20944;47.048;15.390;2022-10-23T07:53:44;1.47;;;1.00;;
12758;SDS011;20944;47.048;15.390;2022-10-23T07:56:33;0.90;;;0.50;;
12758;SDS011;20944;47.048;15.390;2022-10-23T07:59:23;1.07;;;0.67;;
12758;SDS011;20944;47.048;15.390;2022-10-23T08:02:12;1.47;;;0.37;;
12758;SDS011;20944;47.048;15.390;2022-10-23T08:05:02;1.47;;;0.80;;
12758;SDS011;20944;47.048;15.390;2022-10-23T08:07:51;2.00;;;0.87;;
12758;SDS011;20944;47.048;15.390;2022-10-23T08:10:39;1.47;;;0.70;;
12758;SDS011;20944;47.048;15.390;2022-10-23T08:13:28;1.77;;;1.30;;
12758;SDS011;20944;47.048;15.390;2022-10-23T08:16:18;2.10;;;1.70;;
12758;SDS011;20944;47.048;15.390;2022-10-23T08:19:07;1.47;;;0.97;;
12758;SDS011;20944;47.048;15.390;2022-10-23T08:21:56;0.73;;;0.50;;
12758;SDS011;20944;47.048;15.390;2022-10-23T08:24:44;1.03;;;0.73;;
12758;SDS011;20944;47.048;15.390;2022-10-23T08:27:33;1.73;;;0.63;;
12758;SDS011;20944;47.048;15.390;2022-10-23T08:30:22;0.90;;;0.73;;
12758;SDS011;20944;47.048;15.390;2022-10-23T08:33:12;0.90;;;0.70;;
12758;SDS011;20944;47.048;15.390;2022-10-23T08:36:00;1.63;;;0.83;;
12758;SDS011;20944;47.048;15.390;2022-10-23T08:38:49;0.83;;;0.50;;
12758;SDS011;20944;47.048;15.390;2022-10-23T08:41:40;0.93;;;0.40;;
12758;SDS011;20944;47.048;15.390;2022-10-23T08:44:31;0.80;;;0.57;;
12758;SDS011;20944;47.048;15.390;2022-10-23T08:47:28;0.83;;;0.67;;
12758;SDS011;20944;47.048;15.390;2022-10-23T08:50:27;2.40;;;0.80;;
12758;SDS011;20944;47.048;15.390;2022-10-23T08:53:20;1.27;;;1.00;;
12758;SDS011;20944;47.048;15.390;2022-10-23T08:56:16;1.00;;;0.80;;
12758;SDS011;20944;47.048;15.390;2022-10-23T08:59:12;1.00;;;0.87;;
12758;SDS011;20944;47.048;15.390;2022-10-23T09:02:09;1.03;;;0.93;;
12758;SDS011;20944;47.048;15.390;2022-10-23T09:05:05;1.80;;;0.90;;
12758;SDS011;20944;47.048;15.390;2022-10-23T09:08:06;2.27;;;0.93;;
12758;SDS011;20944;47.048;15.390;2022-10-23T09:11:08;1.80;;;1.63;;
12758;SDS011;20944;47.048;15.390;2022-10-23T09:17:19;1.00;;;1.00;;
12758;SDS011;20944;47.048;15.390;2022-10-23T09:20:13;1.90;;;1.53;;
12758;SDS011;20944;47.048;15.390;2022-10-23T09:23:11;1.53;;;1.13;;
12758;SDS011;20944;47.048;15.390;2022-10-23T09:26:05;1.97;;;1.30;;
12758;SDS011;20944;47.048;15.390;2022-10-23T09:29:01;2.60;;;1.40;;
12758;SDS011;20944;47.048;15.390;2022-10-23T09:32:01;1.50;;;0.93;;
12758;SDS011;20944;47.048;15.390;2022-10-23T09:34:53;1.70;;;1.37;;
12758;SDS011;20944;47.048;15.390;2022-10-23T09:37:44;1.43;;;1.20;;
12758;SDS011;20944;47.048;15.390;2022-10-23T09:40:37;1.70;;;1.47;;
12758;SDS011;20944;47.048;15.390;2022-10-23T09:43:28;2.07;;;1.50;;
12758;SDS011;20944;47.048;15.390;2022-10-23T09:46:17;2.50;;;2.23;;
12758;SDS011;20944;47.048;15.390;2022-10-23T09:49:12;2.10;;;1.43;;
12758;SDS011;20944;47.048;15.390;2022-10-23T09:52:04;2.40;;;1.50;;
12758;SDS011;20944;47.048;15.390;2022-10-23T09:55:17;2.17;;;1.13;;
12758;SDS011;20944;47.048;15.390;2022-10-23T09:58:18;2.10;;;1.83;;
12758;SDS011;20944;47.048;15.390;2022-10-23T10:01:20;2.63;;;1.60;;
12758;SDS011;20944;47.048;15.390;2022-10-23T10:04:10;1.60;;;1.50;;
12758;SDS011;20944;47.048;15.390;2022-10-23T10:06:59;1.47;;;1.23;;
12758;SDS011;20944;47.048;15.390;2022-10-23T10:09:49;1.67;;;1.57;;
12758;SDS011;20944;47.048;15.390;2022-10-23T10:12:41;1.10;;;0.90;;
12758;SDS011;20944;47.048;15.390;2022-10-23T10:15:39;1.57;;;1.40;;
12758;SDS011;20944;47.048;15.390;2022-10-23T10:18:36;2.27;;;1.57;;
12758;SDS011;20944;47.048;15.390;2022-10-23T10:21:30;0.87;;;0.83;;
12758;SDS011;20944;47.048;15.390;2022-10-23T10:24:29;2.63;;;1.10;;
12758;SDS011;20944;47.048;15.390;2022-10-23T10:27:29;1.40;;;1.30;;
12758;SDS011;20944;47.048;15.390;2022-10-23T10:30:33;2.87;;;1.00;;
12758;SDS011;20944;47.048;15.390;2022-10-23T10:33:32;1.73;;;1.63;;
12758;SDS011;20944;47.048;15.390;2022-10-23T10:36:32;2.40;;;1.47;;
12758;SDS011;20944;47.048;15.390;2022-10-23T10:39:36;1.67;;;0.97;;
12758;SDS011;20944;47.048;15.390;2022-10-23T10:42:38;1.57;;;1.20;;
12758;SDS011;20944;47.048;15.390;2022-10-23T10:45:36;1.73;;;1.30;;
12758;SDS011;20944;47.048;15.390;2022-10-23T10:48:33;0.73;;;0.63;;
12758;SDS011;20944;47.048;15.390;2022-10-23T10:51:29;1.50;;;1.40;;
12758;SDS011;20944;47.048;15.390;2022-10-23T10:54:29;1.60;;;0.83;;
12758;SDS011;20944;47.048;15.390;2022-10-23T10:57:28;1.00;;;0.97;;
12758;SDS011;20944;47.048;15.390;2022-10-23T11:00:20;0.93;;;0.80;;
12758;SDS011;20944;47.048;15.390;2022-10-23T18:16:26;1.30;;;0.40;;
12758;SDS011;20944;47.048;15.390;2022-10-23T18:19:17;0.60;;;0.60;;
